Terminal Aerodrome Forecast
Issued by NWS Jackson, MS

Home | Current Version | Previous Version | Text Only | Print | Product List | Glossary On
Versions: 1 2 3 4 5 6 7 8 9 10 11 12 13 14 15
000
FTUS44 KMEG 281739
TAFTUP
TAF
KTUP 281739Z 2818/0118 10007KT P6SM BKN090 BKN250
     FM010300 12004KT P6SM SCT025 OVC060
     FM011000 14004KT 6SM BR VCSH SCT009 OVC060
      TEMPO 0110/0112 BKN009
     FM011200 17007KT 4SM BR VCSH OVC010=

USA.gov is the U.S. government's official web portal to all federal, state and local government web resources and services.